Time;durP1;ratioP1;P1;durP2;ratioP2;P2;SDS_P1;SDS_P2;PMS_P1;PMS_P2;Temp;Humidity;BMP_temperature;BMP_pressure;BME280_temperature;BME280_humidity;BME280_pressure;Samples;Min_cycle;Max_cycle;Signal;HPM_P1;HPM_P2
2021/03/28 03:31:35;;;;;;;15.43;10.37;;;;;;;9.38;48.18;100089.75;7860220;23;20271;-83
2021/03/28 03:35:15;;;;;;;7.13;3.00;;;;;;;9.15;49.02;100093.25;6867861;28;20201;-85
2021/03/28 03:38:56;;;;;;;5.13;2.90;;;;;;;9.18;48.85;100103.66;6868378;28;20217;-85
2021/03/28 03:42:27;;;;;;;4.17;3.10;;;;;;;9.05;48.89;100071.00;6853400;28;20237;-84
2021/03/28 03:46:04;;;;;;;5.83;4.00;;;;;;;9.16;49.05;100103.81;6867356;28;20248;-85
2021/03/28 03:49:38;;;;;;;8.57;3.80;;;;;;;9.09;49.58;100105.50;6861337;28;20236;-84
2021/03/28 03:53:06;;;;;;;7.60;4.10;;;;;;;8.73;49.71;100087.03;6847826;28;20605;-84
2021/03/28 03:56:33;;;;;;;5.63;4.03;;;;;;;9.47;48.97;100114.81;6846978;29;20182;-84
2021/03/28 04:00:02;;;;;;;7.93;3.10;;;;;;;9.76;48.00;100107.97;6847392;29;20245;-84
2021/03/28 04:03:29;;;;;;;3.67;3.07;;;;;;;9.86;47.57;100105.09;6847005;28;20229;-84
2021/03/28 04:07:07;;;;;;;5.37;2.70;;;;;;;9.65;48.16;100107.44;6846865;29;20205;-85
2021/03/28 04:10:34;;;;;;;3.83;3.00;;;;;;;9.22;49.04;100118.47;6846619;28;20549;-84
2021/03/28 04:14:06;;;;;;;7.03;3.43;;;;;;;8.74;50.98;100121.00;6847725;29;20217;-81
2021/03/28 04:17:39;;;;;;;6.73;3.37;;;;;;;8.81;50.39;100107.75;6847885;29;20209;-82
2021/03/28 04:21:09;;;;;;;4.33;2.93;;;;;;;9.05;49.51;100103.28;6847780;28;20226;-82
2021/03/28 04:24:37;;;;;;;4.17;2.90;;;;;;;9.61;47.52;100109.63;6846308;29;20194;-81
2021/03/28 04:28:30;;;;;;;5.23;3.33;;;;;;;9.15;48.67;100126.34;6845002;29;20217;-83
2021/03/28 04:32:34;;;;;;;7.00;3.17;;;;;;;9.24;49.03;100127.22;6812757;28;20780;-82
2021/03/28 04:36:05;;;;;;;4.60;2.97;;;;;;;9.38;48.89;100126.56;6845394;29;20217;-82
2021/03/28 04:40:05;;;;;;;5.17;3.00;;;;;;;9.44;48.48;100131.28;6845756;29;20646;-83
2021/03/28 04:44:08;;;;;;;4.30;3.40;;;;;;;9.31;48.65;100139.84;6774777;29;20772;-82
2021/03/28 04:48:09;;;;;;;4.23;3.00;;;;;;;9.35;47.85;100126.91;6844312;29;20186;-81
2021/03/28 04:52:00;;;;;;;6.30;3.00;;;;;;;9.35;48.04;100127.75;6845612;28;20241;-83
2021/03/28 04:55:29;;;;;;;8.20;2.97;;;;;;;9.20;47.50;100133.94;6846310;28;20659;-82
2021/03/28 04:59:03;;;;;;;4.83;3.13;;;;;;;8.45;49.48;100133.97;6846800;29;20577;-82
2021/03/28 05:02:28;;;;;;;5.87;2.93;;;;;;;8.72;48.99;100144.50;6846161;28;20233;-83
2021/03/28 05:05:58;;;;;;;7.53;3.07;;;;;;;8.84;49.46;100139.72;6845655;29;20209;-83
2021/03/28 05:09:45;;;;;;;6.17;2.90;;;;;;;8.68;49.08;100145.00;6845586;29;20210;-82
2021/03/28 05:13:44;;;;;;;3.73;2.93;;;;;;;8.66;49.07;100145.16;6843000;29;20225;-82
2021/03/28 05:17:39;;;;;;;7.93;3.77;;;;;;;8.42;49.89;100155.78;6844452;29;20210;-82
2021/03/28 05:21:17;;;;;;;5.47;3.00;;;;;;;8.79;48.75;100133.97;6828446;28;20224;-84
2021/03/28 05:25:11;;;;;;;4.13;3.17;;;;;;;8.61;48.95;100155.53;6831708;28;20225;-84
2021/03/28 05:29:13;;;;;;;4.60;2.80;;;;;;;8.81;48.14;100150.78;6785581;29;20221;-85
2021/03/28 05:33:02;;;;;;;3.37;2.60;;;;;;;8.95;47.72;100151.00;6820953;29;20241;-85
2021/03/28 05:36:53;;;;;;;5.43;3.07;;;;;;;9.24;47.04;100136.16;6841545;28;20198;-85
2021/03/28 05:40:52;;;;;;;3.97;3.17;;;;;;;9.39;46.89;100139.03;6822655;29;20918;-85
2021/03/28 05:44:47;;;;;;;7.07;3.33;;;;;;;9.47;46.69;100139.03;6817127;29;20603;-85
2021/03/28 05:48:43;;;;;;;5.27;2.70;;;;;;;9.61;45.68;100138.38;6817483;29;20209;-85
2021/03/28 05:52:44;;;;;;;4.67;3.33;;;;;;;9.82;45.20;100147.69;6817206;29;20234;-84
2021/03/28 05:56:42;;;;;;;6.30;3.13;;;;;;;10.00;45.03;100137.56;6841271;29;20613;-83
2021/03/28 06:00:19;;;;;;;3.23;2.50;;;;;;;10.06;44.52;100144.16;6843871;28;20325;-84
2021/03/28 06:04:19;;;;;;;5.17;2.70;;;;;;;9.90;44.76;100161.16;6842293;29;20499;-84
2021/03/28 06:08:22;;;;;;;3.63;3.17;;;;;;;10.04;44.89;100156.97;6843231;28;20205;-84
2021/03/28 06:12:26;;;;;;;6.53;4.67;;;;;;;10.85;42.47;100148.53;6834878;28;20670;-84
2021/03/28 06:16:05;;;;;;;5.43;2.40;;;;;;;10.67;42.99;100166.81;6842915;29;20209;-84
2021/03/28 06:20:00;;;;;;;5.20;2.90;;;;;;;10.89;42.11;100159.81;6843642;29;20194;-84
2021/03/28 06:24:01;;;;;;;6.17;2.97;;;;;;;10.58;43.31;100162.44;6818372;29;20233;-84
2021/03/28 06:27:55;;;;;;;5.43;3.33;;;;;;;10.93;43.07;100174.66;6794848;29;20265;-84
2021/03/28 06:31:51;;;;;;;4.93;2.97;;;;;;;11.96;40.75;100156.19;6815837;29;20241;-85
2021/03/28 06:35:39;;;;;;;8.80;3.50;;;;;;;12.11;41.07;100176.84;6822820;29;20195;-84
2021/03/28 06:39:23;;;;;;;5.93;3.73;;;;;;;11.92;41.48;100187.31;6821245;29;20682;-84
2021/03/28 06:43:16;;;;;;;6.00;3.17;;;;;;;13.13;38.65;100177.00;6839633;28;20262;-84
2021/03/28 06:47:09;;;;;;;7.40;3.50;;;;;;;12.65;40.30;100183.78;6844031;29;20620;-83
2021/03/28 06:51:12;;;;;;;9.57;3.60;;;;;;;12.58;40.48;100177.41;6844737;29;20947;-82
2021/03/28 06:55:03;;;;;;;6.57;3.33;;;;;;;13.38;39.43;100181.06;6808879;28;20224;-83
2021/03/28 06:58:56;;;;;;;7.53;3.60;;;;;;;14.16;36.87;100190.91;6845693;29;20220;-83
2021/03/28 07:02:36;;;;;;;8.03;3.67;;;;;;;13.32;37.91;100165.56;6844901;28;20240;-83
2021/03/28 07:06:05;;;;;;;4.90;2.53;;;;;;;14.52;36.30;100161.00;6846909;29;20193;-86
2021/03/28 07:09:37;;;;;;;6.33;2.90;;;;;;;15.39;34.31;100180.13;6852428;29;20240;-91
2021/03/28 07:13:25;;;;;;;6.53;2.60;;;;;;;13.60;35.35;100185.50;6864959;29;20230;-90
2021/03/28 07:17:01;;;;;;;5.43;2.70;;;;;;;14.20;35.06;100161.53;6844894;29;20209;-85
2021/03/28 07:20:39;;;;;;;4.23;2.67;;;;;;;15.48;33.16;100159.06;6841986;29;20549;-85
2021/03/28 07:24:34;;;;;;;4.47;2.40;;;;;;;14.80;33.76;100154.50;6841070;28;20255;-86
2021/03/28 07:28:38;;;;;;;4.50;2.50;;;;;;;14.69;35.06;100179.47;6842102;28;20203;-84
2021/03/28 07:32:36;;;;;;;7.93;3.10;;;;;;;15.14;35.31;100164.50;6833162;28;20720;-84
2021/03/28 07:36:11;;;;;;;6.47;3.03;;;;;;;14.61;35.57;100178.78;6841086;28;20619;-84
2021/03/28 07:39:57;;;;;;;4.77;2.63;;;;;;;15.04;34.66;100193.94;6843529;29;20202;-83
2021/03/28 07:43:53;;;;;;;5.97;2.80;;;;;;;14.71;35.36;100193.72;6842222;28;20300;-85
2021/03/28 07:47:39;;;;;;;4.03;2.70;;;;;;;14.86;34.40;100199.88;6841685;29;20225;-84
2021/03/28 07:51:25;;;;;;;8.07;2.57;;;;;;;15.62;33.06;100191.53;6841365;28;20240;-87
2021/03/28 07:55:12;;;;;;;4.50;2.47;;;;;;;15.92;32.14;100190.16;6841828;29;20197;-87
2021/03/28 07:58:43;;;;;;;4.90;2.40;;;;;;;17.04;30.35;100165.47;6842270;29;20202;-87
2021/03/28 08:02:20;;;;;;;4.10;2.00;;;;;;;17.54;29.14;100167.41;6842365;28;20632;-86
2021/03/28 08:05:57;;;;;;;6.60;2.30;;;;;;;16.28;30.53;100201.50;6840913;29;20190;-84
2021/03/28 08:09:34;;;;;;;8.93;2.53;;;;;;;16.98;30.15;100190.84;6840385;29;20272;-85
2021/03/28 08:13:32;;;;;;;7.07;2.83;;;;;;;16.87;30.69;100216.00;6841428;28;20235;-85
2021/03/28 08:17:12;;;;;;;4.83;2.57;;;;;;;16.86;30.34;100233.41;6840957;29;20671;-84
2021/03/28 08:21:11;;;;;;;6.60;2.57;;;;;;;17.12;30.49;100236.09;6841740;28;20225;-85
2021/03/28 08:24:59;;;;;;;4.50;2.30;;;;;;;17.31;29.82;100240.69;6824316;29;20250;-85
2021/03/28 08:28:53;;;;;;;5.23;2.67;;;;;;;17.00;30.77;100254.16;6841503;29;20214;-84
2021/03/28 08:32:42;;;;;;;6.73;2.50;;;;;;;16.27;31.41;100237.94;6840677;28;20237;-84
2021/03/28 08:36:14;;;;;;;6.43;2.57;;;;;;;16.98;30.16;100250.78;6844269;28;20222;-84
2021/03/28 08:40:03;;;;;;;6.27;3.20;;;;;;;16.97;30.07;100242.81;6848904;29;20274;-85
2021/03/28 08:43:49;;;;;;;9.50;3.13;;;;;;;17.37;30.03;100228.06;6848504;28;20225;-83
2021/03/28 08:47:41;;;;;;;5.93;2.70;;;;;;;18.12;28.44;100248.16;6842202;29;20233;-84
2021/03/28 08:51:36;;;;;;;4.23;2.60;;;;;;;18.88;28.68;100246.97;6845248;28;20234;-84
2021/03/28 08:55:04;;;;;;;4.00;2.30;;;;;;;18.71;27.86;100243.16;6844756;29;20192;-85
2021/03/28 08:58:28;;;;;;;5.73;2.67;;;;;;;18.06;28.04;100250.91;6845343;29;20245;-83
2021/03/28 09:01:53;;;;;;;5.20;2.43;;;;;;;19.01;27.71;100246.88;6844543;28;20715;-84
2021/03/28 09:05:18;;;;;;;5.27;2.10;;;;;;;18.58;28.47;100245.13;6844158;29;20602;-83
2021/03/28 09:08:47;;;;;;;5.40;2.30;;;;;;;19.34;28.15;100231.00;6844963;29;20666;-86
2021/03/28 09:12:25;;;;;;;5.77;2.40;;;;;;;17.74;29.40;100230.91;6843706;28;20233;-85
2021/03/28 09:15:59;;;;;;;7.17;3.20;;;;;;;18.04;29.63;100221.09;6844968;29;20277;-84
2021/03/28 09:19:43;;;;;;;4.70;2.50;;;;;;;19.05;28.44;100223.47;6845336;29;20187;-85
2021/03/28 09:23:17;;;;;;;4.23;2.43;;;;;;;18.60;29.07;100223.88;6844371;28;20234;-83
2021/03/28 09:26:48;;;;;;;6.53;2.40;;;;;;;19.15;27.78;100229.28;6844484;29;20203;-86
2021/03/28 09:33:51;;;;;;;7.07;2.63;;;;;;;19.51;26.02;100204.69;6885407;28;20312;-78
2021/03/28 09:37:17;;;;;;;5.70;2.70;;;;;;;19.97;25.26;100188.53;6873768;28;20603;-78
2021/03/28 09:40:43;;;;;;;4.23;2.63;;;;;;;20.71;25.40;100212.69;6869244;28;20219;-78
2021/03/28 09:44:13;;;;;;;5.00;2.67;;;;;;;20.05;25.24;100206.53;6868941;28;20215;-78
2021/03/28 09:47:38;;;;;;;5.53;2.30;;;;;;;20.47;24.21;100186.31;6867875;28;20214;-78
2021/03/28 09:51:15;;;;;;;7.00;2.03;;;;;;;19.77;23.29;100196.19;6868565;28;20228;-78
2021/03/28 09:54:56;;;;;;;2.80;1.77;;;;;;;19.77;22.75;100209.88;6868012;28;20627;-78
2021/03/28 09:58:42;;;;;;;3.73;2.20;;;;;;;19.05;24.42;100182.47;6833578;28;20211;-79
2021/03/28 10:02:32;;;;;;;3.93;2.27;;;;;;;19.94;24.10;100197.19;6841793;28;20211;-78
2021/03/28 10:06:00;;;;;;;2.17;1.80;;;;;;;20.16;22.98;100189.34;6839156;28;20212;-79
2021/03/28 10:09:29;;;;;;;5.10;2.13;;;;;;;20.65;22.84;100173.38;6841504;28;20202;-78
2021/03/28 10:12:54;;;;;;;3.60;1.87;;;;;;;19.82;22.99;100171.66;6841114;29;20222;-78
2021/03/28 10:16:20;;;;;;;3.33;2.00;;;;;;;19.50;21.90;100185.78;6841135;29;20217;-79
2021/03/28 10:19:43;;;;;;;3.40;1.93;;;;;;;19.03;23.22;100189.22;6841569;29;20208;-79
2021/03/28 10:23:18;;;;;;;4.80;2.27;;;;;;;19.65;23.37;100161.59;6840887;29;20266;-79
2021/03/28 10:26:55;;;;;;;3.70;2.40;;;;;;;20.05;23.13;100138.91;6838474;28;20220;-79
2021/03/28 10:30:25;;;;;;;3.93;2.13;;;;;;;20.61;22.51;100166.69;6841867;28;20244;-79
2021/03/28 10:33:59;;;;;;;5.83;2.67;;;;;;;20.44;22.61;100175.81;6841422;28;20551;-79
2021/03/28 10:37:31;;;;;;;6.20;2.77;;;;;;;19.01;24.79;100164.00;6841348;29;20333;-79
2021/03/28 10:40:54;;;;;;;4.00;2.27;;;;;;;19.66;24.10;100157.78;6840324;29;20194;-79
2021/03/28 10:44:26;;;;;;;2.70;2.17;;;;;;;19.77;24.52;100174.28;6841483;29;20213;-79
2021/03/28 10:48:24;;;;;;;4.47;2.60;;;;;;;20.33;23.29;100165.69;6841066;29;20212;-79
2021/03/28 10:52:34;;;;;;;4.30;2.20;;;;;;;20.57;23.20;100167.41;6841483;28;20237;-79
2021/03/28 10:56:25;;;;;;;4.67;2.60;;;;;;;20.73;23.12;100159.31;6840485;29;20211;-79
2021/03/28 11:00:13;;;;;;;4.77;2.30;;;;;;;21.29;23.28;100132.09;6840659;28;20592;-79
2021/03/28 11:04:12;;;;;;;3.13;2.10;;;;;;;20.17;23.76;100147.19;6841000;28;20218;-78
2021/03/28 11:07:52;;;;;;;3.60;2.10;;;;;;;21.12;23.03;100133.94;6845497;28;20203;-77
2021/03/28 11:11:42;;;;;;;2.87;2.00;;;;;;;21.11;22.63;100118.53;6867060;28;20620;-75
2021/03/28 11:15:31;;;;;;;4.50;2.10;;;;;;;20.93;23.09;100123.34;6866852;28;20216;-78
2021/03/28 11:19:28;;;;;;;5.63;2.20;;;;;;;21.44;22.91;100115.94;6867482;28;20217;-78
2021/03/28 11:23:04;;;;;;;3.90;2.30;;;;;;;22.05;20.95;100102.34;6867161;28;20287;-78
2021/03/28 11:27:19;;;;;;;3.67;2.00;;;;;;;21.50;21.65;100117.72;6866213;28;20253;-79
2021/03/28 11:30:42;;;;;;;4.23;2.07;;;;;;;21.17;21.37;100096.47;6784770;28;20358;-78
2021/03/28 11:34:15;;;;;;;2.87;2.20;;;;;;;20.76;21.76;100070.28;6840752;28;20603;-78
2021/03/28 11:37:42;;;;;;;3.50;2.10;;;;;;;20.28;22.98;100100.63;6839863;29;20194;-76
2021/03/28 11:41:37;;;;;;;2.87;2.00;;;;;;;19.80;22.99;100116.31;6840159;28;20206;-76
2021/03/28 11:45:29;;;;;;;3.17;2.00;;;;;;;20.14;22.95;100109.31;6849828;28;20213;-76
2021/03/28 11:49:07;;;;;;;3.57;2.10;;;;;;;20.61;21.68;100068.03;6865941;28;20199;-76
2021/03/28 11:52:33;;;;;;;4.00;2.23;;;;;;;20.60;22.49;100087.44;6861622;28;20551;-75
2021/03/28 11:55:56;;;;;;;6.67;1.97;;;;;;;21.09;22.17;100085.03;6854270;28;20599;-75
2021/03/28 11:59:34;;;;;;;2.73;1.90;;;;;;;20.73;21.64;100048.81;6843469;28;20202;-75
2021/03/28 12:03:37;;;;;;;4.40;2.50;;;;;;;21.75;20.74;100075.16;6851922;28;20256;-74
2021/03/28 12:07:14;;;;;;;5.30;2.77;;;;;;;21.12;21.42;100078.22;6865643;28;20217;-75
2021/03/28 12:10:36;;;;;;;3.63;2.03;;;;;;;21.46;21.79;100061.66;6867878;28;20226;-76
2021/03/28 12:13:59;;;;;;;3.23;1.90;;;;;;;21.75;21.33;100047.72;6871088;28;20325;-80
2021/03/28 12:17:23;;;;;;;5.87;2.20;;;;;;;21.84;20.95;100059.13;6870360;28;20221;-74
2021/03/28 12:20:44;;;;;;;11.87;6.00;;;;;;;22.00;21.24;100050.03;6870605;28;20201;-74
2021/03/28 12:24:09;;;;;;;3.43;2.30;;;;;;;21.56;20.53;100054.47;6870736;28;20211;-74
2021/03/28 12:27:36;;;;;;;6.30;2.47;;;;;;;20.53;21.97;100041.00;6869964;28;20642;-74
2021/03/28 12:30:58;;;;;;;3.60;2.10;;;;;;;20.78;21.96;100025.91;6868537;28;20243;-75
2021/03/28 12:34:23;;;;;;;5.80;2.47;;;;;;;21.50;20.77;100038.13;6870313;28;20228;-72
2021/03/28 12:37:47;;;;;;;4.67;2.20;;;;;;;20.92;22.21;100040.22;6843367;29;20208;-75
2021/03/28 12:41:23;;;;;;;5.43;2.40;;;;;;;21.49;21.54;100028.25;6844091;29;20209;-75
2021/03/28 12:44:46;;;;;;;3.23;2.23;;;;;;;20.91;22.31;100044.06;6844111;29;20723;-78
2021/03/28 12:48:21;;;;;;;4.70;2.00;;;;;;;20.96;22.77;100019.50;6844221;29;20276;-78
2021/03/28 12:51:44;;;;;;;4.43;1.97;;;;;;;21.67;21.02;100019.81;6844363;29;20230;-78
2021/03/28 12:55:19;;;;;;;5.60;2.37;;;;;;;21.51;22.01;99993.97;6843717;29;20219;-77
2021/03/28 12:58:43;;;;;;;5.67;2.10;;;;;;;20.61;22.51;99979.47;6862893;28;20209;-74
2021/03/28 13:02:12;;;;;;;5.07;2.40;;;;;;;21.07;21.19;99936.34;6870116;28;20567;-74
2021/03/28 13:05:36;;;;;;;3.77;2.30;;;;;;;21.29;21.82;99918.09;6867061;28;20221;-76
2021/03/28 13:09:01;;;;;;;6.17;3.17;;;;;;;21.40;21.73;99923.53;6853290;28;20206;-75
2021/03/28 13:12:28;;;;;;;3.97;2.20;;;;;;;21.71;21.38;99903.75;6869361;28;20228;-73
2021/03/28 13:15:52;;;;;;;8.30;2.83;;;;;;;21.33;21.13;99900.91;6867743;28;20558;-78
2021/03/28 13:19:23;;;;;;;5.53;2.50;;;;;;;21.18;20.95;99991.13;6869221;28;20206;-76
2021/03/28 13:22:45;;;;;;;5.70;2.20;;;;;;;20.25;22.03;99912.13;6858383;28;20206;-76
2021/03/28 13:26:14;;;;;;;4.40;2.03;;;;;;;20.80;21.72;99979.06;6866594;28;20567;-75
2021/03/28 13:29:37;;;;;;;4.70;2.13;;;;;;;21.13;21.90;99963.59;6869416;28;20206;-75
2021/03/28 13:33:00;;;;;;;4.60;2.37;;;;;;;22.17;20.80;99973.97;6869238;28;20222;-75
2021/03/28 13:36:25;;;;;;;4.13;2.03;;;;;;;22.56;20.81;99964.69;6868316;28;20209;-75
2021/03/28 13:40:05;;;;;;;2.33;1.90;;;;;;;22.78;20.63;99949.84;6868630;28;20213;-75
2021/03/28 13:43:30;;;;;;;3.20;1.97;;;;;;;22.02;20.54;99938.03;6863196;28;20212;-72
2021/03/28 13:46:55;;;;;;;6.03;1.90;;;;;;;22.39;20.09;99936.38;6841677;29;20217;-73
2021/03/28 13:50:47;;;;;;;2.90;2.10;;;;;;;22.19;20.48;99931.41;6854891;28;20659;-73
2021/03/28 13:54:09;;;;;;;3.07;2.30;;;;;;;21.69;21.24;99936.13;6859154;28;20214;-73
2021/03/28 13:57:33;;;;;;;4.07;1.70;;;;;;;21.75;20.39;99880.22;6867327;28;20205;-72
2021/03/28 14:01:05;;;;;;;3.73;1.90;;;;;;;21.96;20.03;99856.66;6866041;28;20208;-72
2021/03/28 14:04:37;;;;;;;4.93;2.40;;;;;;;23.15;18.57;99887.56;6868034;28;20242;-73
2021/03/28 14:08:01;;;;;;;5.00;2.30;;;;;;;21.96;19.94;99856.66;6866664;28;20651;-72
2021/03/28 14:11:26;;;;;;;3.07;1.80;;;;;;;21.48;20.70;99939.56;6867061;28;20718;-77
2021/03/28 14:14:48;;;;;;;3.80;2.03;;;;;;;22.42;20.17;99933.94;6861016;28;20217;-78
2021/03/28 14:18:21;;;;;;;4.77;2.20;;;;;;;21.93;20.31;99848.91;6868805;28;20206;-77
2021/03/28 14:21:42;;;;;;;5.43;2.30;;;;;;;22.00;20.38;99924.53;6868430;28;20250;-78
2021/03/28 14:25:08;;;;;;;4.83;2.17;;;;;;;22.28;20.25;99926.31;6867266;28;20217;-77
2021/03/28 14:28:44;;;;;;;8.40;4.33;;;;;;;20.72;21.01;99814.16;6845714;28;20220;-77
2021/03/28 14:32:15;;;;;;;7.33;3.30;;;;;;;21.28;20.81;99859.66;6867915;28;20269;-78
2021/03/28 14:35:47;;;;;;;3.67;2.03;;;;;;;20.86;20.85;99763.44;6867218;28;20198;-78
2021/03/28 14:39:39;;;;;;;3.83;2.07;;;;;;;21.52;20.09;99824.63;6867808;28;20596;-77
2021/03/28 14:43:20;;;;;;;3.53;1.97;;;;;;;22.12;19.89;99911.53;6867964;28;20207;-75
2021/03/28 14:46:50;;;;;;;3.03;2.03;;;;;;;21.54;20.94;99882.88;6867476;28;20216;-76
2021/03/28 14:50:17;;;;;;;5.50;2.73;;;;;;;21.64;20.06;99905.81;6864843;28;20237;-75
2021/03/28 14:53:42;;;;;;;3.80;2.30;;;;;;;21.09;20.88;99838.19;6868215;28;20213;-77
2021/03/28 14:57:07;;;;;;;3.63;2.33;;;;;;;21.33;20.82;99865.22;6867755;28;20218;-77
2021/03/28 15:00:33;;;;;;;2.70;1.83;;;;;;;21.95;19.74;99850.31;6867880;28;20260;-77
2021/03/28 15:04:14;;;;;;;3.93;2.30;;;;;;;21.50;20.11;99851.50;6858307;28;20554;-77
2021/03/28 15:08:07;;;;;;;6.33;2.00;;;;;;;21.17;20.07;99720.66;6865647;28;20350;-76
2021/03/28 15:11:37;;;;;;;3.50;1.73;;;;;;;22.27;19.88;99909.00;6855743;28;20609;-78
2021/03/28 15:15:02;;;;;;;3.40;1.93;;;;;;;22.32;20.25;99911.84;6866682;28;20210;-78
2021/03/28 15:18:59;;;;;;;4.73;1.93;;;;;;;21.65;20.58;99827.06;6867744;28;20213;-78
2021/03/28 15:22:24;;;;;;;3.37;2.10;;;;;;;21.51;19.90;99821.06;6857949;28;20260;-78
2021/03/28 15:25:52;;;;;;;3.00;2.30;;;;;;;21.40;20.69;99854.91;6867190;28;20224;-78
2021/03/28 15:29:18;;;;;;;2.63;1.97;;;;;;;21.58;20.79;99895.84;6866955;28;20223;-78
2021/03/28 15:33:00;;;;;;;4.87;1.97;;;;;;;21.92;20.97;99900.25;6864349;28;20818;-78
2021/03/28 15:36:29;;;;;;;4.53;2.03;;;;;;;20.82;20.94;99743.09;6845768;28;20240;-78
2021/03/28 15:40:15;;;;;;;3.37;2.20;;;;;;;22.56;21.08;99907.78;6864252;28;20221;-78
2021/03/28 15:44:07;;;;;;;2.70;1.90;;;;;;;21.92;20.38;99782.16;6866633;28;20254;-78
2021/03/28 15:47:56;;;;;;;2.90;1.80;;;;;;;20.95;20.93;99794.88;6863899;28;20209;-79
2021/03/28 15:51:25;;;;;;;3.00;2.30;;;;;;;20.70;21.28;99703.94;6863713;28;20233;-78
2021/03/28 15:54:58;;;;;;;4.63;2.17;;;;;;;20.67;21.43;99747.19;6867773;28;20662;-78
2021/03/28 15:58:50;;;;;;;4.27;2.20;;;;;;;21.30;22.40;99780.66;6867021;28;20228;-78
2021/03/28 16:02:29;;;;;;;3.97;2.20;;;;;;;21.04;23.26;99807.13;6867047;28;20208;-78
2021/03/28 16:05:54;;;;;;;5.53;2.43;;;;;;;21.16;23.90;99821.59;6865730;28;20205;-79
2021/03/28 16:09:46;;;;;;;4.63;2.30;;;;;;;20.77;23.87;99730.13;6867100;28;20279;-78
2021/03/28 16:13:20;;;;;;;5.17;2.40;;;;;;;20.87;24.12;99781.56;6866800;28;20215;-78
2021/03/28 16:17:11;;;;;;;4.30;2.20;;;;;;;21.48;24.73;99903.88;6866980;28;20212;-78
2021/03/28 16:20:48;;;;;;;4.83;2.40;;;;;;;19.84;25.07;99785.50;6866404;28;20363;-77
2021/03/28 16:24:17;;;;;;;5.17;2.23;;;;;;;20.74;25.25;99853.13;6866822;28;20682;-80
2021/03/28 16:27:44;;;;;;;5.27;2.40;;;;;;;20.80;24.49;99816.53;6865993;28;20292;-81
2021/03/28 16:31:15;;;;;;;4.03;2.27;;;;;;;20.35;24.95;99826.59;6866687;28;20241;-80
2021/03/28 16:34:47;;;;;;;5.07;2.70;;;;;;;20.23;25.52;99919.72;6866741;28;20216;-79
2021/03/28 16:38:25;;;;;;;4.37;2.13;;;;;;;20.47;25.25;99932.34;6866129;28;20216;-79
2021/03/28 16:42:06;;;;;;;5.07;2.80;;;;;;;20.48;25.11;99883.84;6865910;28;20206;-79
2021/03/28 16:45:31;;;;;;;5.20;2.90;;;;;;;19.13;25.88;99809.50;6847875;28;20202;-79
2021/03/28 16:48:56;;;;;;;6.33;2.47;;;;;;;19.41;25.60;99859.72;6847047;28;20194;-80
2021/03/28 16:52:22;;;;;;;6.20;2.40;;;;;;;20.08;25.16;99915.81;6842401;28;20707;-79
2021/03/28 16:55:46;;;;;;;5.40;2.83;;;;;;;18.92;25.11;99774.53;6838575;28;20217;-80
2021/03/28 16:59:32;;;;;;;4.93;2.60;;;;;;;20.14;25.28;99975.97;6843479;29;20225;-80
2021/03/28 17:02:54;;;;;;;4.57;2.80;;;;;;;19.66;25.23;99919.72;6825227;29;20222;-80
2021/03/28 17:06:22;;;;;;;5.27;2.63;;;;;;;19.99;25.11;99958.31;6867364;28;20212;-80
2021/03/28 17:10:30;;;;;;;7.67;4.40;;;;;;;18.99;24.95;99898.25;6870434;28;20214;-80
2021/03/28 17:13:52;;;;;;;5.47;2.50;;;;;;;19.12;25.40;99862.50;6862758;28;20562;-80
2021/03/28 17:17:23;;;;;;;4.83;2.67;;;;;;;19.99;25.01;99972.00;6869960;28;20210;-80
2021/03/28 17:21:09;;;;;;;7.47;4.70;;;;;;;19.55;24.88;99912.31;6870436;28;20208;-80
2021/03/28 17:24:36;;;;;;;17.13;9.33;;;;;;;19.41;24.87;99919.91;6870223;28;20224;-80
2021/03/28 17:28:37;;;;;;;4.33;2.70;;;;;;;19.10;25.57;99927.53;6869993;28;20830;-80
2021/03/28 17:32:00;;;;;;;4.53;2.10;;;;;;;18.97;25.52;99933.16;6870372;28;20241;-80
2021/03/28 17:35:23;;;;;;;5.00;2.70;;;;;;;19.56;25.37;99987.84;6869780;28;20298;-81
2021/03/28 17:38:53;;;;;;;6.13;2.70;;;;;;;18.70;25.52;99888.16;6870001;28;20257;-78
2021/03/28 17:42:45;;;;;;;5.00;2.60;;;;;;;19.40;25.77;99999.47;6868190;28;20209;-77
2021/03/28 17:46:08;;;;;;;7.00;3.40;;;;;;;18.95;26.33;99992.72;6861234;28;20210;-79
2021/03/28 17:49:52;;;;;;;6.03;2.80;;;;;;;18.91;26.31;100007.88;6869846;28;20232;-79
2021/03/28 17:53:30;;;;;;;5.73;3.43;;;;;;;19.17;26.13;99999.34;6869896;28;20235;-79
2021/03/28 17:56:51;;;;;;;5.70;2.67;;;;;;;19.14;26.07;99989.72;6870023;28;20602;-80
2021/03/28 18:00:27;;;;;;;10.50;6.00;;;;;;;18.90;26.50;99937.91;6835671;28;20237;-78
2021/03/28 18:03:50;;;;;;;8.67;5.20;;;;;;;19.16;27.22;100014.91;6869822;28;20406;-78
2021/03/28 18:07:16;;;;;;;6.80;4.20;;;;;;;19.07;27.40;100010.00;6869030;28;20214;-78
2021/03/28 18:10:41;;;;;;;3.83;2.77;;;;;;;18.71;28.17;99999.13;6866951;28;20236;-78
2021/03/28 18:14:24;;;;;;;5.13;2.90;;;;;;;18.46;29.01;100031.94;6868095;28;20210;-78
2021/03/28 18:17:46;;;;;;;4.80;2.70;;;;;;;18.26;29.62;100030.44;6867378;28;20201;-78
2021/03/28 18:21:49;;;;;;;3.77;2.40;;;;;;;18.08;28.80;100038.59;6868285;28;20212;-78
2021/03/28 18:25:34;;;;;;;6.30;3.00;;;;;;;17.92;29.46;100042.72;6868462;28;20291;-78
2021/03/28 18:29:00;;;;;;;13.53;6.03;;;;;;;17.54;30.32;100038.38;6867927;28;20763;-79
2021/03/28 18:32:25;;;;;;;18.33;9.90;;;;;;;17.17;32.04;100034.56;6868467;28;20252;-79
2021/03/28 18:35:47;;;;;;;44.80;26.57;;;;;;;17.31;31.75;100040.81;6866984;28;20248;-80
2021/03/28 18:39:13;;;;;;;32.63;19.03;;;;;;;17.29;31.70;100043.75;6868497;28;20568;-79
2021/03/28 18:42:35;;;;;;;43.37;24.37;;;;;;;17.25;32.03;100045.25;6867973;28;20224;-80
2021/03/28 18:46:13;;;;;;;7.93;5.70;;;;;;;17.36;32.31;100050.00;6867599;28;20628;-80
2021/03/28 18:49:35;;;;;;;7.87;3.97;;;;;;;17.02;33.12;100055.84;6866636;28;20209;-80
2021/03/28 18:53:09;;;;;;;22.30;10.27;;;;;;;16.06;35.38;100060.41;6866867;28;20229;-80
2021/03/28 18:56:35;;;;;;;15.77;9.40;;;;;;;15.69;36.25;100066.47;6865836;28;20658;-80
2021/03/28 19:00:16;;;;;;;5.53;4.60;;;;;;;15.86;36.14;100068.56;6867294;28;20236;-80
2021/03/28 19:03:38;;;;;;;8.40;4.67;;;;;;;16.15;35.25;100073.59;6867820;28;20247;-80
2021/03/28 19:07:05;;;;;;;8.77;4.80;;;;;;;15.78;35.94;100065.22;6864152;28;20220;-80
2021/03/28 19:10:30;;;;;;;7.27;4.20;;;;;;;15.53;36.38;100056.84;6867684;28;20536;-80
2021/03/28 19:13:57;;;;;;;6.90;3.70;;;;;;;15.68;36.36;100064.81;6867400;28;20657;-80
2021/03/28 19:17:21;;;;;;;11.97;3.80;;;;;;;15.47;36.45;100054.94;6866315;28;20698;-80
2021/03/28 19:20:45;;;;;;;4.97;3.13;;;;;;;15.47;36.43;100067.69;6865882;28;20235;-80
2021/03/28 19:24:08;;;;;;;8.90;4.00;;;;;;;15.28;36.97;100066.53;6865808;28;20682;-80
2021/03/28 19:27:39;;;;;;;6.47;3.70;;;;;;;15.43;36.57;100080.00;6864692;28;20217;-80
2021/03/28 19:31:21;;;;;;;7.33;3.47;;;;;;;15.17;36.83;100088.03;6866560;28;20228;-80
2021/03/28 19:35:01;;;;;;;9.27;3.47;;;;;;;15.33;36.53;100087.72;6866885;28;20627;-80
2021/03/28 19:38:25;;;;;;;7.53;3.53;;;;;;;15.05;37.24;100100.53;6866579;28;20213;-80
2021/03/28 19:41:46;;;;;;;5.73;3.53;;;;;;;14.94;37.05;100096.53;6866693;28;20201;-80
2021/03/28 19:45:30;;;;;;;6.33;4.37;;;;;;;14.36;38.17;100078.00;6864786;28;20209;-80
2021/03/28 19:48:53;;;;;;;6.77;4.20;;;;;;;14.36;38.32;100090.72;6862936;28;20242;-80
2021/03/28 19:52:16;;;;;;;7.03;4.30;;;;;;;14.40;38.30;100100.97;6866142;28;20231;-80
2021/03/28 19:55:37;;;;;;;6.03;3.30;;;;;;;14.61;37.81;100103.63;6866490;28;20195;-80
2021/03/28 19:59:01;;;;;;;5.73;3.70;;;;;;;14.55;37.67;100106.31;6865870;28;20246;-80
2021/03/28 20:02:26;;;;;;;6.90;3.37;;;;;;;14.50;37.62;100104.19;6866003;28;20209;-79
2021/03/28 20:05:48;;;;;;;6.60;3.67;;;;;;;14.31;37.99;100110.31;6865915;28;20212;-79
2021/03/28 20:09:11;;;;;;;7.10;3.53;;;;;;;14.51;37.69;100116.72;6865826;28;20223;-80
2021/03/28 20:12:32;;;;;;;5.17;3.30;;;;;;;14.35;38.17;100100.75;6866416;28;20229;-79
2021/03/28 20:15:54;;;;;;;6.07;3.50;;;;;;;14.42;37.98;100111.66;6866382;28;20222;-80
2021/03/28 20:19:16;;;;;;;7.87;3.40;;;;;;;14.03;38.50;100109.44;6866672;28;20227;-80
2021/03/28 20:22:38;;;;;;;6.33;3.33;;;;;;;13.53;39.33;100120.41;6866062;28;20723;-80
2021/03/28 20:26:10;;;;;;;7.03;3.10;;;;;;;13.80;38.71;100124.25;6865871;28;20219;-81